createdAt,value
2023-03-30T00:02:38.068Z,3.30
2023-03-30T00:06:41.145Z,4.10
2023-03-30T00:10:43.968Z,2.60
2023-03-30T00:14:44.929Z,2.97
2023-03-30T00:18:46.759Z,3.40
2023-03-30T00:22:47.863Z,3.67
2023-03-30T00:26:48.811Z,3.10
2023-03-30T00:30:52.205Z,2.87
2023-03-30T00:34:53.141Z,2.90
2023-03-30T00:38:54.756Z,2.93
2023-03-30T00:43:07.208Z,2.63
2023-03-30T00:47:08.468Z,3.23
2023-03-30T00:51:10.610Z,4.23
2023-03-30T00:55:12.212Z,3.10
2023-03-30T00:59:13.640Z,3.27
2023-03-30T01:03:41.845Z,3.57
2023-03-30T01:07:45.083Z,2.93
2023-03-30T01:11:46.270Z,3.80
2023-03-30T01:16:08.248Z,3.70
2023-03-30T01:20:35.782Z,3.47
2023-03-30T01:24:52.788Z,3.70
2023-03-30T01:29:01.193Z,3.60
2023-03-30T01:33:06.002Z,3.53
2023-03-30T01:37:28.443Z,4.17
2023-03-30T01:41:51.018Z,3.43
2023-03-30T01:46:18.645Z,3.87
2023-03-30T01:50:29.403Z,3.07
2023-03-30T01:54:34.028Z,3.60
2023-03-30T01:58:38.832Z,2.73
2023-03-30T02:02:55.864Z,2.50
2023-03-30T02:07:13.017Z,2.83
2023-03-30T02:11:14.001Z,2.97
2023-03-30T02:15:18.274Z,2.43
2023-03-30T02:19:19.494Z,2.53
2023-03-30T02:23:23.146Z,2.80
2023-03-30T02:27:25.634Z,3.60
2023-03-30T02:31:26.824Z,2.70
2023-03-30T02:35:43.604Z,3.47
2023-03-30T02:39:57.648Z,3.83
2023-03-30T02:44:25.511Z,2.93
2023-03-30T02:48:33.300Z,2.97
2023-03-30T02:52:41.000Z,4.97
2023-03-30T02:56:58.017Z,3.80
2023-03-30T03:01:19.582Z,3.93
2023-03-30T03:05:21.776Z,3.60
2023-03-30T03:09:24.363Z,4.07
2023-03-30T03:13:27.299Z,3.00
2023-03-30T03:17:30.628Z,3.67
2023-03-30T03:21:31.782Z,3.33
2023-03-30T03:25:32.789Z,3.30
2023-03-30T03:29:34.340Z,3.83
2023-03-30T03:33:35.488Z,4.10
2023-03-30T03:37:36.524Z,4.40
2023-03-30T03:41:37.672Z,3.53
2023-03-30T03:45:38.697Z,4.20
2023-03-30T03:49:39.944Z,5.03
2023-03-30T03:53:41.069Z,3.87
2023-03-30T03:57:43.973Z,4.23
2023-03-30T04:01:45.543Z,3.83
2023-03-30T04:05:46.692Z,4.50
2023-03-30T04:09:47.951Z,4.23
2023-03-30T04:13:49.460Z,3.67
2023-03-30T04:17:52.537Z,2.77
2023-03-30T04:21:54.921Z,4.87
2023-03-30T04:26:00.121Z,3.83
2023-03-30T04:30:01.693Z,4.53
2023-03-30T04:34:04.264Z,4.10
2023-03-30T04:38:05.536Z,4.90
2023-03-30T04:42:06.905Z,3.57
2023-03-30T04:46:08.197Z,4.10
2023-03-30T04:50:10.094Z,4.43
2023-03-30T04:54:11.280Z,4.00
2023-03-30T04:58:12.272Z,4.80
2023-03-30T05:02:15.531Z,3.87
2023-03-30T05:06:16.557Z,4.70
2023-03-30T05:10:17.749Z,3.47
2023-03-30T05:14:18.845Z,3.80
2023-03-30T05:18:19.961Z,3.97
2023-03-30T05:22:21.127Z,3.27
2023-03-30T05:26:23.109Z,3.97
2023-03-30T05:30:24.233Z,3.67
2023-03-30T05:34:25.522Z,3.23
2023-03-30T05:38:26.643Z,4.10
2023-03-30T05:42:27.737Z,3.70
2023-03-30T05:46:28.727Z,3.93
2023-03-30T05:50:30.084Z,3.67
2023-03-30T05:54:31.321Z,4.97
2023-03-30T05:58:32.282Z,4.57
2023-03-30T06:02:33.475Z,4.80
2023-03-30T06:06:34.635Z,5.40
2023-03-30T06:10:36.297Z,4.67
2023-03-30T06:14:37.340Z,5.13
2023-03-30T06:18:38.632Z,3.97
2023-03-30T06:22:44.117Z,4.93
2023-03-30T06:26:45.209Z,4.03
2023-03-30T06:30:48.200Z,4.43
2023-03-30T06:34:49.267Z,4.83
2023-03-30T06:38:50.287Z,5.10
2023-03-30T06:42:51.405Z,4.97
2023-03-30T06:46:52.754Z,6.57
2023-03-30T06:50:54.321Z,5.10
2023-03-30T06:54:55.621Z,5.67
2023-03-30T06:58:56.727Z,6.97
2023-03-30T07:02:58.402Z,7.37
2023-03-30T07:07:00.388Z,6.57
2023-03-30T07:11:03.519Z,6.43
2023-03-30T07:15:08.933Z,7.37
2023-03-30T07:19:10.335Z,6.63
2023-03-30T07:23:11.538Z,6.00
2023-03-30T07:27:12.661Z,5.37
2023-03-30T07:31:14.551Z,5.50
2023-03-30T07:35:16.286Z,6.00
2023-03-30T07:39:17.263Z,4.13
2023-03-30T07:43:18.272Z,4.83
2023-03-30T07:47:19.393Z,4.67
2023-03-30T07:51:20.621Z,4.90
2023-03-30T07:55:21.816Z,5.57
2023-03-30T07:59:23.472Z,4.47
2023-03-30T08:03:24.925Z,5.70
2023-03-30T08:07:27.122Z,4.77
2023-03-30T08:11:28.310Z,4.50
2023-03-30T08:15:29.399Z,4.47
2023-03-30T08:19:30.537Z,6.80
2023-03-30T08:23:31.481Z,4.90
2023-03-30T08:27:33.555Z,5.10
2023-03-30T08:31:36.762Z,4.40
2023-03-30T08:35:37.982Z,4.23
2023-03-30T08:39:38.891Z,4.30
2023-03-30T08:43:43.921Z,4.00
2023-03-30T08:47:48.856Z,5.57
2023-03-30T08:51:53.363Z,3.97
2023-03-30T08:56:08.390Z,3.20
2023-03-30T09:00:33.502Z,3.80
2023-03-30T09:04:52.218Z,3.13
2023-03-30T09:08:53.738Z,3.60
2023-03-30T09:12:58.110Z,3.20
2023-03-30T09:17:08.787Z,3.93
2023-03-30T09:21:11.893Z,3.50
2023-03-30T09:25:20.941Z,3.73
2023-03-30T09:29:31.455Z,3.73
2023-03-30T09:33:52.611Z,4.20
2023-03-30T09:37:53.988Z,3.87
2023-03-30T09:42:13.691Z,3.40
2023-03-30T09:46:15.806Z,4.07
2023-03-30T09:50:20.491Z,4.10
2023-03-30T09:54:22.377Z,4.37
2023-03-30T09:58:32.368Z,5.07
2023-03-30T10:02:33.685Z,4.00
2023-03-30T10:06:38.821Z,3.77
2023-03-30T10:10:40.642Z,4.47
2023-03-30T10:14:42.586Z,3.77
2023-03-30T10:18:45.332Z,4.03
2023-03-30T10:22:55.661Z,4.00
2023-03-30T10:27:12.829Z,3.27
2023-03-30T10:31:16.296Z,3.50
2023-03-30T10:35:20.953Z,3.93
2023-03-30T10:39:25.793Z,3.83
2023-03-30T10:43:32.199Z,3.43
2023-03-30T10:47:53.675Z,3.00
2023-03-30T10:52:10.623Z,2.63
2023-03-30T10:56:47.333Z,2.47
2023-03-30T11:00:55.319Z,2.37
2023-03-30T11:05:06.452Z,2.50
2023-03-30T11:09:11.341Z,2.53
2023-03-30T11:13:37.267Z,1.80
2023-03-30T11:17:43.051Z,2.50
2023-03-30T11:22:08.933Z,1.67
2023-03-30T11:26:13.120Z,1.87
2023-03-30T11:30:21.012Z,1.60
2023-03-30T11:34:40.882Z,2.00
2023-03-30T11:39:02.518Z,2.37
2023-03-30T11:43:03.712Z,1.80
2023-03-30T11:47:21.127Z,1.60
2023-03-30T11:51:32.118Z,2.23
2023-03-30T11:55:59.517Z,1.60
2023-03-30T12:00:06.614Z,2.10
2023-03-30T12:04:11.757Z,1.73
2023-03-30T12:08:28.024Z,2.20
2023-03-30T12:12:35.755Z,0.77
2023-03-30T12:20:58.647Z,0.70
2023-03-30T12:25:22.411Z,0.60
2023-03-30T12:29:58.563Z,0.87
2023-03-30T12:33:30.207Z,0.60
2023-03-30T12:37:34.170Z,0.97
2023-03-30T12:41:46.794Z,1.10
2023-03-30T12:45:53.805Z,1.40
2023-03-30T12:50:16.705Z,0.97
2023-03-30T12:54:42.886Z,1.13
2023-03-30T12:58:56.890Z,1.13
2023-03-30T13:03:18.326Z,1.00
2023-03-30T13:07:24.979Z,1.13
2023-03-30T13:11:26.068Z,1.40
2023-03-30T13:15:43.140Z,1.00
2023-03-30T13:19:50.629Z,1.10
2023-03-30T13:24:01.659Z,1.10
2023-03-30T13:28:23.088Z,1.60
2023-03-30T13:32:36.847Z,1.43
2023-03-30T13:36:47.256Z,1.33
2023-03-30T13:41:10.486Z,1.40
2023-03-30T13:45:30.657Z,2.00
2023-03-30T13:49:38.276Z,1.60
2023-03-30T13:53:46.038Z,1.80
2023-03-30T13:57:47.308Z,1.20
2023-03-30T14:01:57.974Z,1.53
2023-03-30T14:06:03.389Z,1.03
2023-03-30T14:10:08.893Z,1.77
2023-03-30T14:14:27.138Z,1.10
2023-03-30T14:18:29.059Z,1.10
2023-03-30T14:22:32.027Z,0.90
2023-03-30T14:26:33.060Z,1.10
2023-03-30T14:30:34.202Z,0.77
2023-03-30T14:34:35.310Z,0.90
2023-03-30T14:38:39.374Z,1.33
2023-03-30T14:42:41.458Z,0.77
2023-03-30T14:46:48.144Z,1.57
2023-03-30T14:50:49.567Z,1.07
2023-03-30T14:55:05.041Z,1.20
2023-03-30T14:58:57.505Z,1.37
2023-03-30T15:03:00.589Z,1.00
2023-03-30T15:07:01.689Z,1.33
2023-03-30T15:11:12.309Z,1.27
2023-03-30T15:15:16.094Z,1.30
2023-03-30T15:19:29.505Z,0.73
2023-03-30T15:23:37.520Z,1.53
2023-03-30T15:27:40.841Z,1.17
2023-03-30T15:31:44.946Z,1.43
2023-03-30T15:35:49.225Z,1.10
2023-03-30T15:39:50.420Z,1.30
2023-03-30T15:44:01.463Z,1.20
2023-03-30T15:48:03.212Z,1.43
2023-03-30T15:52:12.626Z,1.27
2023-03-30T15:56:21.175Z,1.63
2023-03-30T16:00:28.004Z,2.03
2023-03-30T16:04:31.517Z,1.87
2023-03-30T16:08:32.542Z,1.70
2023-03-30T16:12:35.596Z,2.10
2023-03-30T16:16:36.752Z,1.83
2023-03-30T16:20:37.738Z,1.83
2023-03-30T16:24:40.191Z,2.10
2023-03-30T16:28:42.886Z,1.27
2023-03-30T16:32:44.724Z,2.20
2023-03-30T16:36:47.308Z,1.60
2023-03-30T16:40:51.431Z,1.97
2023-03-30T16:44:53.200Z,2.23
2023-03-30T16:48:55.532Z,1.93
2023-03-30T16:52:56.671Z,1.90
2023-03-30T16:56:57.692Z,2.40
2023-03-30T17:01:05.241Z,2.37
2023-03-30T17:05:06.988Z,2.63
2023-03-30T17:09:11.947Z,2.47
2023-03-30T17:13:12.805Z,1.80
2023-03-30T17:17:13.957Z,1.70
2023-03-30T17:21:18.041Z,1.10
2023-03-30T17:25:22.029Z,1.30
2023-03-30T17:29:23.634Z,1.03
2023-03-30T17:33:25.509Z,0.93
2023-03-30T17:37:26.631Z,1.00
2023-03-30T17:41:27.586Z,1.53
2023-03-30T17:45:29.737Z,1.27
2023-03-30T17:49:31.062Z,1.53
2023-03-30T17:53:32.306Z,2.40
2023-03-30T17:57:33.586Z,1.60
2023-03-30T18:01:36.245Z,1.30
2023-03-30T18:05:37.548Z,2.30
2023-03-30T18:09:38.653Z,2.03
2023-03-30T18:13:39.782Z,1.93
2023-03-30T18:17:41.294Z,2.07
2023-03-30T18:21:42.325Z,2.60
2023-03-30T18:25:43.705Z,2.17
2023-03-30T18:29:45.011Z,2.10
2023-03-30T18:33:46.038Z,2.37
2023-03-30T18:37:47.704Z,1.60
2023-03-30T18:41:49.293Z,2.13
2023-03-30T18:45:50.548Z,4.23
2023-03-30T18:49:51.810Z,3.20
2023-03-30T18:53:52.824Z,2.20
2023-03-30T18:57:54.076Z,1.93
2023-03-30T19:01:55.126Z,1.80
2023-03-30T19:05:56.249Z,1.97
2023-03-30T19:09:57.579Z,2.30
2023-03-30T19:14:00.115Z,2.30
2023-03-30T19:18:02.666Z,2.33
2023-03-30T19:22:03.969Z,2.67
2023-03-30T19:26:05.397Z,3.20
2023-03-30T19:30:08.391Z,2.20
2023-03-30T19:34:09.500Z,2.13
2023-03-30T19:38:10.615Z,2.63
2023-03-30T19:42:11.901Z,2.73
2023-03-30T19:46:13.186Z,3.43
2023-03-30T19:50:17.413Z,4.00
2023-03-30T19:54:19.101Z,3.83
2023-03-30T19:58:20.354Z,3.20
2023-03-30T20:02:21.975Z,3.97
2023-03-30T20:06:23.352Z,4.20
2023-03-30T20:10:26.223Z,2.87
2023-03-30T20:14:27.283Z,2.93
2023-03-30T20:18:31.262Z,2.80
2023-03-30T20:22:34.230Z,2.93
2023-03-30T20:26:36.086Z,2.73
2023-03-30T20:30:37.674Z,3.43
2023-03-30T20:34:39.643Z,2.90
2023-03-30T20:38:41.240Z,2.47
2023-03-30T20:42:43.604Z,2.20
2023-03-30T20:46:44.786Z,2.23
2023-03-30T20:50:46.014Z,2.95
2023-03-30T20:54:48.597Z,1.90
2023-03-30T20:58:50.556Z,1.93
2023-03-30T21:02:51.696Z,2.10
2023-03-30T21:06:53.006Z,1.80
2023-03-30T21:10:54.444Z,1.40
2023-03-30T21:14:55.711Z,2.47
2023-03-30T21:18:57.142Z,2.67
2023-03-30T21:22:58.206Z,1.50
2023-03-30T21:26:59.515Z,1.80
2023-03-30T21:31:02.973Z,1.50
2023-03-30T21:35:04.554Z,2.00
2023-03-30T21:39:05.746Z,1.57
2023-03-30T21:43:06.723Z,1.73
2023-03-30T21:47:07.935Z,4.67
2023-03-30T21:51:15.717Z,1.80
2023-03-30T21:55:16.928Z,1.80
2023-03-30T21:59:18.288Z,1.60
2023-03-30T22:03:20.153Z,2.30
2023-03-30T22:07:21.241Z,1.90
2023-03-30T22:11:24.391Z,2.17
2023-03-30T22:15:25.585Z,1.83
2023-03-30T22:19:28.395Z,1.90
2023-03-30T22:23:29.749Z,1.60
2023-03-30T22:27:31.131Z,1.40
2023-03-30T22:31:32.665Z,2.00
2023-03-30T22:35:39.296Z,2.80
2023-03-30T22:39:40.369Z,1.90
2023-03-30T22:43:41.689Z,2.00
2023-03-30T22:47:42.825Z,2.17
2023-03-30T22:51:45.916Z,1.57
2023-03-30T22:55:47.497Z,1.47
2023-03-30T22:59:48.491Z,1.97
2023-03-30T23:03:49.733Z,2.00
2023-03-30T23:07:50.985Z,1.37
2023-03-30T23:11:53.060Z,1.37
2023-03-30T23:15:55.636Z,1.33
2023-03-30T23:19:57.665Z,1.80
2023-03-30T23:23:59.788Z,3.17
2023-03-30T23:28:02.631Z,2.77
2023-03-30T23:32:04.817Z,2.93
2023-03-30T23:36:06.847Z,5.07
2023-03-30T23:40:08.942Z,3.90
2023-03-30T23:44:10.050Z,3.57
2023-03-30T23:48:11.240Z,3.30
2023-03-30T23:52:12.389Z,3.67
2023-03-30T23:56:15.244Z,3.80
